createdAt,value
2023-01-18T00:04:11.773Z,-0.10
2023-01-18T00:09:13.704Z,-0.20
2023-01-18T00:14:15.511Z,-0.20
2023-01-18T00:19:17.417Z,-0.30
2023-01-18T00:24:20.771Z,-0.30
2023-01-18T00:29:22.642Z,-0.10
2023-01-18T00:34:24.413Z,-0.30
2023-01-18T00:39:26.176Z,-0.40
2023-01-18T00:44:27.946Z,-0.40
2023-01-18T00:49:29.726Z,-0.40
2023-01-18T00:54:31.686Z,-0.30
2023-01-18T00:59:33.488Z,-0.40
2023-01-18T01:04:54.267Z,-0.60
2023-01-18T01:09:57.848Z,-0.60
2023-01-18T01:15:17.936Z,-0.70
2023-01-18T01:20:39.091Z,-0.50
2023-01-18T01:25:59.716Z,-0.50
2023-01-18T01:31:03.133Z,-0.60
2023-01-18T01:36:13.500Z,-0.60
2023-01-18T01:41:25.364Z,-0.60
2023-01-18T01:46:48.289Z,-0.80
2023-01-18T01:52:02.964Z,-0.90
2023-01-18T01:57:12.650Z,-0.80
2023-01-18T02:02:14.697Z,-1.00
2023-01-18T02:07:16.556Z,-0.90
2023-01-18T02:12:19.149Z,-0.70
2023-01-18T02:17:42.725Z,-0.80
2023-01-18T02:23:03.116Z,-0.90
2023-01-18T02:28:14.013Z,-1.00
2023-01-18T02:33:25.040Z,-0.90
2023-01-18T02:38:38.281Z,-1.00
2023-01-18T02:44:01.780Z,-1.00
2023-01-18T02:49:13.236Z,-1.10
2023-01-18T02:54:24.940Z,-1.10
2023-01-18T02:59:34.751Z,-1.00
2023-01-18T03:04:38.681Z,-1.10
2023-01-18T03:09:42.007Z,-1.20
2023-01-18T03:15:13.091Z,-1.10
2023-01-18T03:20:20.621Z,-1.20
2023-01-18T03:25:34.819Z,-1.20
2023-01-18T03:30:57.658Z,-1.40
2023-01-18T03:36:00.669Z,-1.20
2023-01-18T03:41:03.994Z,-1.10
2023-01-18T03:46:08.073Z,-0.80
2023-01-18T03:51:39.630Z,-0.70
2023-01-18T03:57:01.572Z,-1.00
2023-01-18T04:02:05.326Z,-1.10
2023-01-18T04:07:07.141Z,-1.20
2023-01-18T04:12:08.909Z,-1.10
2023-01-18T04:17:10.694Z,-1.10
2023-01-18T04:22:12.500Z,-1.20
2023-01-18T04:27:14.290Z,-1.30
2023-01-18T04:32:16.086Z,-1.20
2023-01-18T04:37:17.961Z,-1.30
2023-01-18T04:42:19.773Z,-1.30
2023-01-18T04:47:21.964Z,-1.20
2023-01-18T04:52:24.077Z,-1.20
2023-01-18T04:57:26.260Z,-1.30
2023-01-18T05:02:28.113Z,-1.30
2023-01-18T05:07:31.266Z,-1.30
2023-01-18T05:12:33.086Z,-1.40
2023-01-18T05:17:35.208Z,-1.40
2023-01-18T05:22:37.294Z,-1.30
2023-01-18T05:27:39.118Z,-1.40
2023-01-18T05:32:40.922Z,-1.30
2023-01-18T05:37:42.840Z,-1.40
2023-01-18T05:42:45.028Z,-1.40
2023-01-18T05:47:46.863Z,-1.20
2023-01-18T05:52:48.636Z,-1.20
2023-01-18T05:57:50.428Z,-1.20
2023-01-18T06:02:53.635Z,-1.20
2023-01-18T06:07:55.451Z,-1.10
2023-01-18T06:12:58.976Z,-1.20
2023-01-18T06:18:00.970Z,-1.20
2023-01-18T06:23:02.823Z,-1.20
2023-01-18T06:28:05.286Z,-1.30
2023-01-18T06:33:08.119Z,-1.30
2023-01-18T06:38:11.032Z,-1.20
2023-01-18T06:43:14.354Z,-1.20
2023-01-18T06:48:16.303Z,-1.20
2023-01-18T06:53:20.285Z,-1.00
2023-01-18T06:58:22.130Z,-1.00
2023-01-18T07:03:24.813Z,-0.80
2023-01-18T07:08:27.475Z,-0.70
2023-01-18T07:13:29.262Z,-0.70
2023-01-18T07:18:31.344Z,-0.70
2023-01-18T07:23:35.648Z,-0.70
2023-01-18T07:28:37.667Z,-0.80
2023-01-18T07:33:39.827Z,-0.70
2023-01-18T07:38:41.938Z,-0.70
2023-01-18T07:43:45.146Z,-0.80
2023-01-18T07:48:48.312Z,-0.80
2023-01-18T07:53:54.718Z,-0.70
2023-01-18T07:58:56.581Z,-0.80
2023-01-18T08:04:01.026Z,-0.80
2023-01-18T08:09:03.240Z,-0.80
2023-01-18T08:14:05.015Z,-0.70
2023-01-18T08:19:06.932Z,-0.70
2023-01-18T08:24:08.733Z,-0.60
2023-01-18T08:29:10.588Z,-0.60
2023-01-18T08:34:12.382Z,-0.50
2023-01-18T08:39:15.051Z,-0.40
2023-01-18T08:44:17.154Z,-0.30
2023-01-18T08:49:18.966Z,-0.30
2023-01-18T08:54:20.810Z,-0.30
2023-01-18T08:59:23.823Z,-0.20
2023-01-18T09:04:27.933Z,-0.20
2023-01-18T09:09:29.747Z,-0.10
2023-01-18T09:14:31.601Z,0.00
2023-01-18T09:19:33.376Z,0.20
2023-01-18T09:24:36.963Z,0.40
2023-01-18T09:29:38.786Z,0.50
2023-01-18T09:34:41.098Z,0.60
2023-01-18T09:39:51.496Z,0.80
2023-01-18T09:44:59.944Z,0.90
2023-01-18T09:50:13.250Z,1.00
2023-01-18T09:55:36.589Z,1.00
2023-01-18T10:00:44.194Z,1.00
2023-01-18T10:06:09.065Z,0.90
2023-01-18T10:11:19.532Z,0.90
2023-01-18T10:16:21.414Z,0.90
2023-01-18T10:21:42.385Z,0.90
2023-01-18T10:26:45.162Z,1.00
2023-01-18T10:31:58.711Z,1.20
2023-01-18T10:37:15.435Z,1.50
2023-01-18T10:42:24.054Z,1.70
2023-01-18T10:47:25.906Z,1.90
2023-01-18T10:52:30.498Z,2.00
2023-01-18T10:57:36.980Z,2.10
2023-01-18T11:02:39.727Z,2.30
2023-01-18T11:07:41.619Z,2.30
2023-01-18T11:12:52.100Z,2.50
2023-01-18T11:18:00.705Z,2.70
2023-01-18T11:23:04.401Z,2.80
2023-01-18T11:28:17.749Z,3.00
2023-01-18T11:33:22.153Z,3.30
2023-01-18T11:38:34.644Z,3.30
2023-01-18T11:43:39.481Z,3.40
2023-01-18T11:48:52.731Z,3.60
2023-01-18T11:54:16.237Z,3.90
2023-01-18T11:59:30.353Z,3.80
2023-01-18T12:05:07.755Z,4.00
2023-01-18T12:10:20.372Z,4.00
2023-01-18T12:15:31.300Z,4.30
2023-01-18T12:20:52.001Z,4.30
2023-01-18T12:26:11.003Z,4.40
2023-01-18T12:31:45.150Z,4.60
2023-01-18T12:37:24.807Z,4.60
2023-01-18T12:42:45.989Z,4.70
2023-01-18T12:48:11.137Z,4.70
2023-01-18T12:54:02.970Z,4.90
2023-01-18T12:59:42.833Z,4.70
2023-01-18T13:04:49.806Z,4.80
2023-01-18T13:09:52.307Z,5.10
2023-01-18T13:15:14.044Z,4.90
2023-01-18T13:20:28.791Z,5.10
2023-01-18T13:25:33.348Z,4.90
2023-01-18T13:30:55.037Z,5.00
2023-01-18T13:36:01.875Z,5.00
2023-01-18T13:41:12.711Z,5.20
2023-01-18T13:46:14.492Z,5.40
2023-01-18T13:51:41.362Z,5.20
2023-01-18T13:57:05.906Z,5.70
2023-01-18T14:02:41.882Z,5.50
2023-01-18T14:07:53.175Z,5.70
2023-01-18T14:12:57.024Z,6.20
2023-01-18T14:17:59.538Z,6.00
2023-01-18T14:23:17.213Z,6.10
2023-01-18T14:28:30.725Z,6.40
2023-01-18T14:33:33.998Z,7.20
2023-01-18T14:38:36.617Z,8.90
2023-01-18T14:43:44.377Z,9.90
2023-01-18T14:48:54.809Z,10.90
2023-01-18T14:54:03.952Z,10.50
2023-01-18T14:59:27.543Z,11.90
2023-01-18T15:04:35.367Z,12.50
2023-01-18T15:09:39.546Z,10.60
2023-01-18T15:14:48.325Z,6.80
2023-01-18T15:19:53.782Z,5.70
2023-01-18T15:24:57.770Z,5.30
2023-01-18T15:30:01.762Z,5.00
2023-01-18T15:35:04.580Z,5.10
2023-01-18T15:40:15.479Z,4.90
2023-01-18T15:45:20.702Z,4.70
2023-01-18T15:50:26.479Z,4.50
2023-01-18T15:55:40.000Z,4.30
2023-01-18T16:00:54.880Z,4.40
2023-01-18T16:06:11.048Z,4.40
2023-01-18T16:11:30.920Z,4.10
2023-01-18T16:16:39.278Z,4.10
2023-01-18T16:21:44.554Z,3.90
2023-01-18T16:26:46.908Z,3.90
2023-01-18T16:31:48.702Z,3.80
2023-01-18T16:36:51.618Z,3.80
2023-01-18T16:41:57.032Z,3.70
2023-01-18T16:46:59.269Z,3.70
2023-01-18T16:52:01.002Z,3.70
2023-01-18T16:57:02.748Z,3.60
2023-01-18T17:02:04.618Z,3.60
2023-01-18T17:07:09.272Z,3.60
2023-01-18T17:12:11.021Z,3.60
2023-01-18T17:17:12.823Z,3.50
2023-01-18T17:22:15.103Z,3.50
2023-01-18T17:27:16.863Z,3.40
2023-01-18T17:32:18.802Z,3.40
2023-01-18T17:37:20.545Z,3.20
2023-01-18T17:42:29.987Z,3.20
2023-01-18T17:47:34.763Z,3.30
2023-01-18T17:52:38.685Z,3.20
2023-01-18T17:57:40.868Z,3.20
2023-01-18T18:02:43.044Z,3.10
2023-01-18T18:07:45.160Z,3.10
2023-01-18T18:12:47.044Z,3.10
2023-01-18T18:17:48.948Z,3.10
2023-01-18T18:22:50.858Z,3.00
2023-01-18T18:27:52.690Z,3.00
2023-01-18T18:32:54.610Z,3.00
2023-01-18T18:37:57.229Z,3.00
2023-01-18T18:43:03.210Z,2.90
2023-01-18T18:48:05.949Z,2.90
2023-01-18T18:53:08.008Z,2.90
2023-01-18T18:58:10.386Z,2.90
2023-01-18T19:03:12.433Z,2.90
2023-01-18T19:08:14.323Z,3.00
2023-01-18T19:13:16.699Z,2.80
2023-01-18T19:18:18.639Z,2.80
2023-01-18T19:23:21.111Z,2.80
2023-01-18T19:28:23.493Z,2.80
2023-01-18T19:33:25.478Z,2.90
2023-01-18T19:38:27.493Z,2.90
2023-01-18T19:43:29.556Z,2.90
2023-01-18T19:48:32.847Z,2.90
2023-01-18T19:53:34.760Z,2.80
2023-01-18T19:58:37.644Z,2.80
2023-01-18T20:03:40.177Z,2.90
2023-01-18T20:08:42.530Z,2.80
2023-01-18T20:13:49.682Z,2.80
2023-01-18T20:18:51.470Z,2.70
2023-01-18T20:23:56.221Z,2.70
2023-01-18T20:28:58.511Z,2.60
2023-01-18T20:34:00.734Z,2.50
2023-01-18T20:39:04.036Z,2.50
2023-01-18T20:44:06.138Z,2.40
2023-01-18T20:49:08.622Z,2.40
2023-01-18T20:54:11.082Z,2.40
2023-01-18T20:59:12.886Z,2.30
2023-01-18T21:04:14.698Z,2.30
2023-01-18T21:09:16.788Z,2.20
2023-01-18T21:14:18.698Z,2.20
2023-01-18T21:19:23.806Z,2.20
2023-01-18T21:24:25.720Z,2.20
2023-01-18T21:29:27.538Z,2.20
2023-01-18T21:34:29.348Z,2.20
2023-01-18T21:39:31.248Z,2.20
2023-01-18T21:44:51.490Z,2.10
2023-01-18T21:50:17.598Z,2.10
2023-01-18T21:55:20.665Z,2.10
2023-01-18T22:00:22.696Z,2.10
2023-01-18T22:05:24.727Z,2.10
2023-01-18T22:10:27.879Z,2.20
2023-01-18T22:15:29.739Z,2.20
2023-01-18T22:20:31.839Z,2.20
2023-01-18T22:25:33.711Z,2.20
2023-01-18T22:30:35.657Z,2.30
2023-01-18T22:35:37.868Z,2.30
2023-01-18T22:40:40.250Z,2.30
2023-01-18T22:45:42.040Z,2.20
2023-01-18T22:50:50.967Z,2.20
2023-01-18T22:55:52.925Z,2.10
2023-01-18T23:00:54.789Z,2.10
2023-01-18T23:06:00.671Z,2.10
2023-01-18T23:11:02.455Z,2.20
2023-01-18T23:16:27.344Z,2.20
2023-01-18T23:21:29.080Z,2.10
2023-01-18T23:26:30.896Z,2.00
2023-01-18T23:31:32.960Z,1.90
2023-01-18T23:36:34.952Z,1.90
2023-01-18T23:41:55.206Z,1.90
2023-01-18T23:47:15.718Z,1.90
2023-01-18T23:52:36.301Z,1.90
2023-01-18T23:57:38.281Z,1.80
